Aeroporto :
LOGIN :

Iscrizione | Disclaimer

   EN    FR    IT 

 










Sommario :    VFR   VFR Marginale   IFR   IFR Intensivo   IFR Molto Intensivo
Visibilità : 
Base nubi : 
>= 8 km
>= 3000ft
5 / 8 km
1000 / 3000 ft
1500m / 5 km
500 / 1000 ft
800 / 1500m
200 / 500 ft
< 800m
< 200 ft
Simboli :   Temporali  Nebbia  Neve Forte  Precipitazioni Forti  Vento > 20 kt
SIGMETs :   Varie  Temporali  Ghiacco  Turbolenza  Onda orograficha  Ceneri Vulcaniche






- Altitudine del aeroporto : 2625 ft
- Codice IATA : LEU


LESU - Aeròdrom dels Pirineus-Alt Urgell

ULTIMO METAR :
  • 171500Z 22006KT 190V250 9999 FEW085 08/00 Q1005

METARs OBSOLETI :
  • 171430Z VRB04KT 9999 FEW075 08/M00 Q1006
  • 171400Z 22004KT 100V260 9999 FEW075 07/M00 Q1006
  • 171330Z 21005KT 180V260 9999 FEW078 07/M01 Q1006
  • 171300Z 19004KT 140V250 9999 FEW080 07/M01 Q1006
  • 171230Z 21006KT 180V240 CAVOK 07/M00 Q1006

TAF TAF LESU
Valido dal 17 a 15 ore il 18 a 15 ore UTC


171400Z 1715/1815 VRB04KT 9999 SCT060 TX11/1813Z TNM05/1806Z
TEMPO 1715/1717 20010KT
PROB40
TEMPO 1721/1806 2000 SN BKN010
TEMPO 1812/1815 01010KT



MetMap, La meteo Aeronautica in un colpo d'occhio ! - Copyright ORBIFLY Dicembre 2007 - Disclaimer

ORBIFLY MET'MAP TEAM :

Programmazione e sviluppo : Alexandra Zaïnal
Concezione e sviluppo : Baudouin d'Aumeries
Co-Programmazione e sviluppo : Marc-Olivier Méhu
Supporto tecnico e logistico : Manuel Goepfert
Aiuto per la traduzione : Arnaldo La Scala

Contatto : metmap@orbifly.com




FONTI E CREDITI :

   NOAA